Time;durP1;ratioP1;P1;durP2;ratioP2;P2;SDS_P1;SDS_P2;PMS_P1;PMS_P2;Temp;Humidity;BMP_temperature;BMP_pressure;BME280_temperature;BME280_humidity;BME280_pressure;Samples;Min_cycle;Max_cycle;Signal;HPM_P1;HPM_P2
2022/09/18 00:02:24;;;;;;;27.40;5.35;;;;;;;;;;3395738;42;20134;-59
2022/09/18 00:04:51;;;;;;;18.50;5.40;;;;;;;;;;3388760;42;20121;-59
2022/09/18 00:07:17;;;;;;;16.77;4.93;;;;;;;;;;3397553;42;20133;-58
2022/09/18 00:09:43;;;;;;;20.77;4.88;;;;;;;;;;3386196;42;20132;-58
2022/09/18 00:12:09;;;;;;;16.50;5.25;;;;;;;;;;3396763;42;20124;-59
2022/09/18 00:14:35;;;;;;;18.42;5.00;;;;;;;;;;3396648;42;20179;-59
2022/09/18 00:17:01;;;;;;;11.70;4.93;;;;;;;;;;3389842;42;20087;-60
2022/09/18 00:19:27;;;;;;;25.77;5.13;;;;;;;;;;3397421;42;20142;-58
2022/09/18 00:21:53;;;;;;;13.55;4.82;;;;;;;;;;3396805;42;20108;-58
2022/09/18 00:24:21;;;;;;;34.05;5.15;;;;;;;;;;3398446;42;20089;-58
2022/09/18 00:26:47;;;;;;;80.65;5.50;;;;;;;;;;3399115;42;20778;-56
2022/09/18 00:29:13;;;;;;;68.38;5.93;;;;;;;;;;3387190;42;20641;-58
2022/09/18 00:31:39;;;;;;;44.63;5.13;;;;;;;;;;3385861;42;20094;-60
2022/09/18 00:34:07;;;;;;;36.60;5.70;;;;;;;;;;3396081;42;20145;-59
2022/09/18 00:36:34;;;;;;;52.90;5.90;;;;;;;;;;3397149;42;20097;-58
2022/09/18 00:39:01;;;;;;;43.92;5.78;;;;;;;;;;3398584;42;20544;-58
2022/09/18 00:41:29;;;;;;;40.92;4.72;;;;;;;;;;3398162;42;20148;-58
2022/09/18 00:44:14;;;;;;;35.37;4.30;;;;;;;;;;3397139;42;20098;-58
2022/09/18 00:46:40;;;;;;;24.42;4.50;;;;;;;;;;3389320;42;20133;-57
2022/09/18 00:49:22;;;;;;;31.35;5.32;;;;;;;;;;3381528;42;20118;-58
2022/09/18 00:51:49;;;;;;;41.88;5.38;;;;;;;;;;3387714;42;20100;-58
2022/09/18 00:54:19;;;;;;;24.80;4.35;;;;;;;;;;3389904;42;20615;-58
2022/09/18 00:56:45;;;;;;;14.10;5.67;;;;;;;;;;3390112;42;20504;-57
2022/09/18 00:59:12;;;;;;;63.70;5.72;;;;;;;;;;3387673;42;20518;-58
2022/09/18 01:01:38;;;;;;;73.55;6.35;;;;;;;;;;3396272;42;20519;-59
2022/09/18 01:04:09;;;;;;;117.53;7.18;;;;;;;;;;3395040;42;20648;-59
2022/09/18 01:06:46;;;;;;;144.33;7.83;;;;;;;;;;3387454;42;20489;-59
2022/09/18 01:09:29;;;;;;;138.38;8.52;;;;;;;;;;3397233;42;20125;-59
2022/09/18 01:11:57;;;;;;;248.88;9.68;;;;;;;;;;3385021;42;20101;-59
2022/09/18 01:14:43;;;;;;;264.50;11.63;;;;;;;;;;3396220;42;20457;-59
2022/09/18 01:17:24;;;;;;;213.18;8.82;;;;;;;;;;3384950;42;20082;-58
2022/09/18 01:20:16;;;;;;;257.37;9.67;;;;;;;;;;3387267;42;20101;-59
2022/09/18 01:23:11;;;;;;;158.77;8.10;;;;;;;;;;3389766;42;20119;-58
2022/09/18 01:26:13;;;;;;;130.85;6.68;;;;;;;;;;3397228;42;20094;-56
2022/09/18 01:28:46;;;;;;;155.25;7.20;;;;;;;;;;3396479;42;20149;-58
2022/09/18 01:31:17;;;;;;;151.07;6.88;;;;;;;;;;3380065;42;20106;-57
2022/09/18 01:33:51;;;;;;;123.37;6.63;;;;;;;;;;3379025;42;20102;-57
2022/09/18 01:36:19;;;;;;;146.73;7.25;;;;;;;;;;3373629;42;20090;-60
2022/09/18 01:38:48;;;;;;;187.50;8.48;;;;;;;;;;3383198;42;20154;-59
2022/09/18 01:41:25;;;;;;;189.02;9.60;;;;;;;;;;3380990;42;20149;-59
2022/09/18 01:44:12;;;;;;;187.70;9.40;;;;;;;;;;3371460;42;20126;-58
2022/09/18 01:46:39;;;;;;;215.30;8.97;;;;;;;;;;3385022;42;20094;-58
2022/09/18 01:49:07;;;;;;;192.18;8.88;;;;;;;;;;3384627;42;20129;-58
2022/09/18 01:51:48;;;;;;;204.02;8.50;;;;;;;;;;3393500;42;20102;-59
2022/09/18 01:54:16;;;;;;;150.60;9.35;;;;;;;;;;3376789;42;20572;-59
2022/09/18 01:56:56;;;;;;;234.25;10.85;;;;;;;;;;3375916;42;20094;-60
2022/09/18 01:59:25;;;;;;;185.50;8.07;;;;;;;;;;3381691;42;20090;-59
2022/09/18 02:01:51;;;;;;;159.88;8.48;;;;;;;;;;3383168;42;20169;-56
2022/09/18 02:04:20;;;;;;;120.88;7.32;;;;;;;;;;3380400;42;20078;-58
2022/09/18 02:06:57;;;;;;;126.63;9.00;;;;;;;;;;3384832;42;20154;-57
2022/09/18 02:09:23;;;;;;;110.93;7.25;;;;;;;;;;3381225;42;20090;-58
2022/09/18 02:11:50;;;;;;;87.73;5.93;;;;;;;;;;3393529;42;20163;-57
2022/09/18 02:14:31;;;;;;;112.10;7.30;;;;;;;;;;3384333;42;20129;-59
2022/09/18 02:17:04;;;;;;;108.45;6.53;;;;;;;;;;3377450;42;20086;-58
2022/09/18 02:19:37;;;;;;;64.55;5.93;;;;;;;;;;3375946;42;20642;-58
2022/09/18 02:22:05;;;;;;;103.45;6.53;;;;;;;;;;3383700;42;20098;-59
2022/09/18 02:24:33;;;;;;;65.97;6.50;;;;;;;;;;3376792;42;20500;-60
2022/09/18 02:26:59;;;;;;;79.65;5.60;;;;;;;;;;3373931;42;20264;-58
2022/09/18 02:29:27;;;;;;;90.45;6.22;;;;;;;;;;3384360;42;20110;-59
2022/09/18 02:31:53;;;;;;;111.53;6.85;;;;;;;;;;3375758;42;20624;-60
2022/09/18 02:34:20;;;;;;;56.07;5.53;;;;;;;;;;3379544;42;20156;-60
2022/09/18 02:36:58;;;;;;;49.08;4.95;;;;;;;;;;3381965;42;20130;-58
2022/09/18 02:39:51;;;;;;;72.43;5.38;;;;;;;;;;3390892;42;20149;-59
2022/09/18 02:42:34;;;;;;;105.07;6.35;;;;;;;;;;3392968;42;20096;-58
2022/09/18 02:45:30;;;;;;;64.75;6.18;;;;;;;;;;3390363;42;20086;-58
2022/09/18 02:48:17;;;;;;;82.17;5.77;;;;;;;;;;3380928;42;20095;-60
2022/09/18 02:51:03;;;;;;;89.70;6.25;;;;;;;;;;3393970;42;20126;-60
2022/09/18 02:53:49;;;;;;;81.45;6.00;;;;;;;;;;3380510;42;20120;-59
2022/09/18 02:56:38;;;;;;;75.03;5.85;;;;;;;;;;3369252;42;20181;-58
2022/09/18 02:59:17;;;;;;;79.10;6.78;;;;;;;;;;3383213;42;20101;-58
2022/09/18 03:01:43;;;;;;;58.83;5.90;;;;;;;;;;3373777;42;20129;-60
2022/09/18 03:04:11;;;;;;;74.85;5.50;;;;;;;;;;3384024;42;20098;-57
2022/09/18 03:06:37;;;;;;;69.25;6.30;;;;;;;;;;3392608;42;20731;-57
2022/09/18 03:09:03;;;;;;;84.53;6.22;;;;;;;;;;3392942;42;20624;-58
2022/09/18 03:11:29;;;;;;;89.38;6.57;;;;;;;;;;3392751;42;20098;-57
2022/09/18 03:13:55;;;;;;;116.23;7.73;;;;;;;;;;3392830;42;20106;-59
2022/09/18 03:16:21;;;;;;;108.82;7.10;;;;;;;;;;3392906;42;20596;-59
2022/09/18 03:18:47;;;;;;;121.05;7.72;;;;;;;;;;3392970;42;20561;-60
2022/09/18 03:21:13;;;;;;;101.43;7.37;;;;;;;;;;3392832;42;20133;-60
2022/09/18 03:23:39;;;;;;;102.88;7.35;;;;;;;;;;3383902;42;20094;-60
2022/09/18 03:26:05;;;;;;;88.45;7.13;;;;;;;;;;3393122;42;20159;-57
2022/09/18 03:28:31;;;;;;;168.82;9.15;;;;;;;;;;3392701;42;20094;-58
2022/09/18 03:30:57;;;;;;;109.63;8.53;;;;;;;;;;3392773;42;20196;-59
2022/09/18 03:33:23;;;;;;;197.35;12.73;;;;;;;;;;3392623;42;20584;-57
2022/09/18 03:35:52;;;;;;;155.30;8.70;;;;;;;;;;3392594;42;20097;-57
2022/09/18 03:38:18;;;;;;;75.13;7.38;;;;;;;;;;3392678;42;20105;-59
2022/09/18 03:40:44;;;;;;;159.70;9.13;;;;;;;;;;3392725;42;20087;-58
2022/09/18 03:43:10;;;;;;;109.57;7.63;;;;;;;;;;3392602;42;20091;-57
2022/09/18 03:45:36;;;;;;;65.65;7.45;;;;;;;;;;3392670;42;20102;-61
2022/09/18 03:48:02;;;;;;;73.03;6.78;;;;;;;;;;3392445;42;20097;-59
2022/09/18 03:50:28;;;;;;;90.63;6.90;;;;;;;;;;3392301;42;20108;-64
2022/09/18 03:52:54;;;;;;;66.82;6.90;;;;;;;;;;3383514;42;20149;-58
2022/09/18 03:55:21;;;;;;;71.30;6.83;;;;;;;;;;3392393;42;20117;-58
2022/09/18 03:57:48;;;;;;;60.42;7.38;;;;;;;;;;3376071;42;20168;-58
2022/09/18 04:00:15;;;;;;;101.88;7.93;;;;;;;;;;3367594;42;20098;-60
2022/09/18 04:02:48;;;;;;;75.32;8.32;;;;;;;;;;3391572;42;20086;-58
2022/09/18 04:05:14;;;;;;;42.45;6.30;;;;;;;;;;3392134;42;20112;-57
2022/09/18 04:07:40;;;;;;;45.57;6.43;;;;;;;;;;3392572;42;20094;-58
2022/09/18 04:10:07;;;;;;;74.47;7.10;;;;;;;;;;3392590;42;20508;-59
2022/09/18 04:12:34;;;;;;;46.67;6.82;;;;;;;;;;3392580;42;20140;-58
2022/09/18 04:15:00;;;;;;;56.50;6.90;;;;;;;;;;3392505;42;20095;-59
2022/09/18 04:17:26;;;;;;;21.90;7.30;;;;;;;;;;3392587;42;20181;-58
2022/09/18 04:19:54;;;;;;;17.87;6.20;;;;;;;;;;3391211;42;20650;-58
2022/09/18 04:22:21;;;;;;;23.45;6.47;;;;;;;;;;3383775;42;20095;-58
2022/09/18 04:24:49;;;;;;;13.18;6.13;;;;;;;;;;3385172;42;20101;-59
2022/09/18 04:27:15;;;;;;;12.43;5.95;;;;;;;;;;3384769;42;20096;-59
2022/09/18 04:29:41;;;;;;;12.50;5.90;;;;;;;;;;3385192;42;20090;-59
2022/09/18 04:32:08;;;;;;;11.37;5.60;;;;;;;;;;3394035;42;20111;-58
2022/09/18 04:34:34;;;;;;;12.70;5.85;;;;;;;;;;3379562;42;20134;-59
2022/09/18 04:37:00;;;;;;;12.05;5.63;;;;;;;;;;3385198;42;20095;-59
2022/09/18 04:39:27;;;;;;;11.18;5.47;;;;;;;;;;3385116;42;20152;-59
2022/09/18 04:41:53;;;;;;;12.50;6.07;;;;;;;;;;3385046;42;20090;-59
2022/09/18 04:44:19;;;;;;;11.13;6.03;;;;;;;;;;3393678;42;20287;-58
2022/09/18 04:46:45;;;;;;;11.15;5.88;;;;;;;;;;3394055;42;20078;-57
2022/09/18 04:49:11;;;;;;;11.68;5.57;;;;;;;;;;3375941;42;20208;-58
2022/09/18 04:51:37;;;;;;;12.60;6.10;;;;;;;;;;3383481;42;20110;-58
2022/09/18 04:54:04;;;;;;;15.43;6.13;;;;;;;;;;3393841;42;20086;-59
2022/09/18 04:56:30;;;;;;;12.00;5.82;;;;;;;;;;3393783;42;20109;-58
2022/09/18 04:58:56;;;;;;;11.82;6.00;;;;;;;;;;3392497;42;20221;-57
2022/09/18 05:01:22;;;;;;;11.05;5.68;;;;;;;;;;3394659;42;20113;-60
2022/09/18 05:03:48;;;;;;;11.57;5.67;;;;;;;;;;3377031;42;20548;-59
2022/09/18 05:06:14;;;;;;;11.50;5.78;;;;;;;;;;3393590;42;20124;-58
2022/09/18 05:08:43;;;;;;;11.82;5.70;;;;;;;;;;3393768;42;20600;-64
2022/09/18 05:11:09;;;;;;;14.10;5.88;;;;;;;;;;3388753;42;20102;-59
2022/09/18 05:13:35;;;;;;;11.70;6.00;;;;;;;;;;3393995;42;20097;-59
2022/09/18 05:16:03;;;;;;;12.63;6.40;;;;;;;;;;3384821;42;20146;-59
2022/09/18 05:18:32;;;;;;;13.45;6.00;;;;;;;;;;3393513;42;20167;-59
2022/09/18 05:21:02;;;;;;;14.77;6.65;;;;;;;;;;3393966;42;20098;-58
2022/09/18 05:23:28;;;;;;;12.37;6.23;;;;;;;;;;3374667;42;20094;-60
2022/09/18 05:25:54;;;;;;;14.43;7.40;;;;;;;;;;3394427;42;20560;-59
2022/09/18 05:28:20;;;;;;;12.65;7.03;;;;;;;;;;3393807;42;20537;-60
2022/09/18 05:30:46;;;;;;;13.68;6.90;;;;;;;;;;3393519;42;20561;-58
2022/09/18 05:33:12;;;;;;;16.40;7.70;;;;;;;;;;3390041;42;20078;-59
2022/09/18 05:35:38;;;;;;;13.50;7.32;;;;;;;;;;3381153;42;20101;-59
2022/09/18 05:38:04;;;;;;;12.85;6.80;;;;;;;;;;3393592;42;20093;-58
2022/09/18 05:40:32;;;;;;;13.05;6.85;;;;;;;;;;3393426;42;20086;-58
2022/09/18 05:42:58;;;;;;;15.55;7.00;;;;;;;;;;3384383;42;20091;-59
2022/09/18 05:45:24;;;;;;;13.93;7.17;;;;;;;;;;3382783;42;20091;-61
2022/09/18 05:47:54;;;;;;;12.57;6.95;;;;;;;;;;3392199;42;20090;-60
2022/09/18 05:50:20;;;;;;;13.30;7.13;;;;;;;;;;3384298;42;20224;-59
2022/09/18 05:52:46;;;;;;;12.20;6.93;;;;;;;;;;3393435;42;20204;-58
2022/09/18 05:55:13;;;;;;;13.68;6.80;;;;;;;;;;3393230;42;20183;-58
2022/09/18 05:57:39;;;;;;;12.27;6.77;;;;;;;;;;3393586;42;20191;-59
2022/09/18 06:00:05;;;;;;;12.02;6.13;;;;;;;;;;3384575;42;20562;-60
2022/09/18 06:02:31;;;;;;;11.98;6.50;;;;;;;;;;3393413;42;20086;-60
2022/09/18 06:04:57;;;;;;;12.10;6.75;;;;;;;;;;3383198;42;20554;-59
2022/09/18 06:07:23;;;;;;;10.87;6.27;;;;;;;;;;3393282;42;20146;-60
2022/09/18 06:09:49;;;;;;;10.63;5.63;;;;;;;;;;3392886;42;20113;-60
2022/09/18 06:12:15;;;;;;;10.50;5.20;;;;;;;;;;3380796;42;20103;-58
2022/09/18 06:14:41;;;;;;;8.75;4.90;;;;;;;;;;3393430;42;20678;-60
2022/09/18 06:17:07;;;;;;;10.50;4.80;;;;;;;;;;3384245;42;20631;-59
2022/09/18 06:19:34;;;;;;;9.55;4.78;;;;;;;;;;3392876;42;20092;-59
2022/09/18 06:21:59;;;;;;;9.75;4.55;;;;;;;;;;3388326;42;20129;-59
2022/09/18 06:24:25;;;;;;;8.52;4.43;;;;;;;;;;3396655;42;20720;-57
2022/09/18 06:26:51;;;;;;;8.50;4.47;;;;;;;;;;3393089;42;20081;-62
2022/09/18 06:29:17;;;;;;;7.70;4.03;;;;;;;;;;3392821;42;20554;-60
2022/09/18 06:31:43;;;;;;;7.75;3.90;;;;;;;;;;3393082;42;20528;-60
2022/09/18 06:34:09;;;;;;;7.80;3.87;;;;;;;;;;3383657;42;20151;-60
2022/09/18 06:36:35;;;;;;;8.38;3.90;;;;;;;;;;3392944;42;20093;-61
2022/09/18 06:39:01;;;;;;;8.40;4.00;;;;;;;;;;3393381;42;20113;-62
2022/09/18 06:41:27;;;;;;;8.63;3.72;;;;;;;;;;3392330;42;20801;-61
2022/09/18 06:43:53;;;;;;;7.33;4.07;;;;;;;;;;3391971;42;20130;-58
2022/09/18 06:46:19;;;;;;;6.90;3.47;;;;;;;;;;3392062;42;20525;-60
2022/09/18 06:48:47;;;;;;;8.00;2.80;;;;;;;;;;3389675;42;20269;-60
2022/09/18 06:51:13;;;;;;;7.25;3.30;;;;;;;;;;3392654;42;20090;-60
2022/09/18 06:53:39;;;;;;;7.20;2.90;;;;;;;;;;3392683;42;20295;-60
2022/09/18 06:56:05;;;;;;;9.20;3.22;;;;;;;;;;3392378;42;20106;-61
2022/09/18 06:58:31;;;;;;;7.63;3.15;;;;;;;;;;3392647;42;20094;-60
2022/09/18 07:00:59;;;;;;;7.03;2.73;;;;;;;;;;3392502;42;20082;-63
2022/09/18 07:03:25;;;;;;;7.43;3.00;;;;;;;;;;3383960;42;20603;-61
2022/09/18 07:05:51;;;;;;;6.10;2.78;;;;;;;;;;3391800;42;20086;-60
2022/09/18 07:08:17;;;;;;;7.28;2.80;;;;;;;;;;3392083;42;20590;-62
2022/09/18 07:10:43;;;;;;;6.78;2.80;;;;;;;;;;3392280;42;20095;-60
2022/09/18 07:13:09;;;;;;;8.43;2.60;;;;;;;;;;3392332;42;20186;-62
2022/09/18 07:15:35;;;;;;;7.13;2.83;;;;;;;;;;3383453;42;20163;-60
2022/09/18 07:18:02;;;;;;;6.07;2.70;;;;;;;;;;3385029;42;20098;-63
2022/09/18 07:20:31;;;;;;;7.60;2.78;;;;;;;;;;3396237;42;20188;-61
2022/09/18 07:22:59;;;;;;;6.10;2.40;;;;;;;;;;3395643;42;20078;-61
2022/09/18 07:25:26;;;;;;;6.40;2.63;;;;;;;;;;3386931;42;20571;-60
2022/09/18 07:27:52;;;;;;;6.10;2.45;;;;;;;;;;3395700;42;20117;-59
2022/09/18 07:30:18;;;;;;;6.47;2.58;;;;;;;;;;3396085;42;20155;-60
2022/09/18 07:32:45;;;;;;;7.50;2.67;;;;;;;;;;3395968;42;20097;-61
2022/09/18 07:35:11;;;;;;;6.13;2.67;;;;;;;;;;3394425;42;20109;-60
2022/09/18 07:37:37;;;;;;;6.43;2.77;;;;;;;;;;3384069;42;20077;-60
2022/09/18 07:40:08;;;;;;;7.88;2.83;;;;;;;;;;3392653;42;20113;-61
2022/09/18 07:42:34;;;;;;;6.50;2.63;;;;;;;;;;3382965;42;20102;-60
2022/09/18 07:45:00;;;;;;;6.50;2.60;;;;;;;;;;3384378;42;20082;-62
2022/09/18 07:47:26;;;;;;;6.00;2.90;;;;;;;;;;3396056;42;20653;-63
2022/09/18 07:49:53;;;;;;;6.87;2.70;;;;;;;;;;3397165;42;20078;-59
2022/09/18 07:52:20;;;;;;;6.55;3.00;;;;;;;;;;3388086;42;20125;-59
2022/09/18 07:54:46;;;;;;;6.13;2.70;;;;;;;;;;3395575;42;20802;-62
2022/09/18 07:57:12;;;;;;;6.85;2.88;;;;;;;;;;3397190;42;20658;-60
2022/09/18 07:59:38;;;;;;;7.13;2.85;;;;;;;;;;3394327;42;20097;-59
2022/09/18 08:02:04;;;;;;;7.40;2.90;;;;;;;;;;3393871;42;20167;-58
2022/09/18 08:04:30;;;;;;;6.40;2.70;;;;;;;;;;3385165;42;20174;-60
2022/09/18 08:07:02;;;;;;;7.15;3.15;;;;;;;;;;3394264;42;20146;-59
2022/09/18 08:09:28;;;;;;;7.00;2.85;;;;;;;;;;3394147;42;20129;-60
2022/09/18 08:11:54;;;;;;;6.57;2.80;;;;;;;;;;3394048;42;20182;-61
2022/09/18 08:14:20;;;;;;;7.10;3.40;;;;;;;;;;3394108;42;20109;-60
2022/09/18 08:16:46;;;;;;;6.90;3.13;;;;;;;;;;3394302;42;20087;-60
2022/09/18 08:19:12;;;;;;;7.72;3.50;;;;;;;;;;3383967;42;20196;-60
2022/09/18 08:21:38;;;;;;;8.23;3.00;;;;;;;;;;3392997;42;20670;-59
2022/09/18 08:24:04;;;;;;;8.15;3.28;;;;;;;;;;3395289;42;20082;-59
2022/09/18 08:26:33;;;;;;;9.65;3.53;;;;;;;;;;3396882;42;20090;-59
2022/09/18 08:28:59;;;;;;;7.55;3.47;;;;;;;;;;3398899;42;20090;-58
2022/09/18 08:31:25;;;;;;;7.75;3.38;;;;;;;;;;3397819;42;20105;-60
2022/09/18 08:33:51;;;;;;;8.23;3.63;;;;;;;;;;3398369;42;20178;-58
2022/09/18 08:36:17;;;;;;;7.55;3.22;;;;;;;;;;3397987;42;20147;-59
2022/09/18 08:38:43;;;;;;;8.13;3.30;;;;;;;;;;3387759;42;20096;-58
2022/09/18 08:41:18;;;;;;;7.72;3.33;;;;;;;;;;3396506;42;20113;-58
2022/09/18 08:43:55;;;;;;;9.10;3.50;;;;;;;;;;3396671;42;20087;-60
2022/09/18 08:46:42;;;;;;;7.38;3.30;;;;;;;;;;3372714;42;20138;-59
2022/09/18 08:49:14;;;;;;;7.93;3.45;;;;;;;;;;3396685;42;20350;-59
2022/09/18 08:51:48;;;;;;;10.80;3.65;;;;;;;;;;3399695;42;20101;-60
2022/09/18 08:54:46;;;;;;;8.27;3.80;;;;;;;;;;3396537;42;20508;-59
2022/09/18 08:57:18;;;;;;;8.13;3.50;;;;;;;;;;3383371;42;20133;-60
2022/09/18 09:00:08;;;;;;;8.25;3.70;;;;;;;;;;3389473;42;20137;-59
2022/09/18 09:02:38;;;;;;;8.48;3.88;;;;;;;;;;3380548;42;20078;-61
2022/09/18 09:05:12;;;;;;;7.97;3.92;;;;;;;;;;3388417;42;20149;-58
2022/09/18 09:08:11;;;;;;;7.45;3.70;;;;;;;;;;3385285;42;20083;-60
2022/09/18 09:11:04;;;;;;;9.17;4.00;;;;;;;;;;3387654;42;20552;-58
2022/09/18 09:13:51;;;;;;;8.40;3.97;;;;;;;;;;3391791;42;20577;-59
2022/09/18 09:16:24;;;;;;;10.15;3.90;;;;;;;;;;3396952;42;20550;-60
2022/09/18 09:19:00;;;;;;;7.88;3.90;;;;;;;;;;3386168;42;20181;-60
2022/09/18 09:21:53;;;;;;;8.10;3.83;;;;;;;;;;3397533;42;20516;-58
2022/09/18 09:24:40;;;;;;;8.23;3.83;;;;;;;;;;3387634;42;20164;-59
2022/09/18 09:27:18;;;;;;;7.68;3.75;;;;;;;;;;3397731;42;20108;-61
2022/09/18 09:29:44;;;;;;;8.35;3.97;;;;;;;;;;3398306;42;20193;-62
2022/09/18 09:32:36;;;;;;;8.32;3.95;;;;;;;;;;3387134;42;20748;-61
2022/09/18 09:35:47;;;;;;;7.95;4.07;;;;;;;;;;3383516;42;20106;-59
2022/09/18 09:38:41;;;;;;;7.93;4.17;;;;;;;;;;3394541;42;20094;-63
2022/09/18 09:41:21;;;;;;;7.72;4.05;;;;;;;;;;3394759;42;20561;-62
2022/09/18 09:44:14;;;;;;;8.23;4.20;;;;;;;;;;3383975;42;20167;-61
2022/09/18 09:46:49;;;;;;;8.48;4.55;;;;;;;;;;3396677;42;20090;-62
2022/09/18 09:49:28;;;;;;;8.70;4.40;;;;;;;;;;3385906;42;20155;-61
2022/09/18 09:52:00;;;;;;;9.27;4.63;;;;;;;;;;3387325;42;20151;-62
2022/09/18 09:54:26;;;;;;;8.77;4.70;;;;;;;;;;3397959;42;20093;-62
2022/09/18 09:57:17;;;;;;;10.38;4.47;;;;;;;;;;3387334;42;20179;-61
2022/09/18 10:00:04;;;;;;;17.40;5.30;;;;;;;;;;3395528;42;20082;-59
2022/09/18 10:03:00;;;;;;;10.07;4.85;;;;;;;;;;3397407;42;20573;-62
2022/09/18 10:05:31;;;;;;;11.17;4.60;;;;;;;;;;3379507;42;20089;-58
2022/09/18 10:08:38;;;;;;;9.88;4.80;;;;;;;;;;3388432;42;20083;-60
2022/09/18 10:11:09;;;;;;;10.45;5.20;;;;;;;;;;3379488;42;20098;-61
2022/09/18 10:13:51;;;;;;;9.98;4.90;;;;;;;;;;3387321;42;20460;-57
2022/09/18 10:16:36;;;;;;;9.35;5.15;;;;;;;;;;3375907;42;20170;-60
2022/09/18 10:19:02;;;;;;;10.53;5.43;;;;;;;;;;3388062;42;20134;-61
2022/09/18 10:21:33;;;;;;;11.02;5.97;;;;;;;;;;3385294;42;20086;-61
2022/09/18 10:24:22;;;;;;;9.07;5.05;;;;;;;;;;3397327;42;20117;-60
2022/09/18 10:26:53;;;;;;;12.38;5.30;;;;;;;;;;3387993;42;20101;-60
2022/09/18 10:29:19;;;;;;;11.90;6.15;;;;;;;;;;3383695;42;20549;-60
2022/09/18 10:31:56;;;;;;;10.70;5.73;;;;;;;;;;3383707;42;20563;-61
2022/09/18 10:34:44;;;;;;;13.02;5.65;;;;;;;;;;3372355;42;20130;-60
2022/09/18 10:37:13;;;;;;;10.38;5.63;;;;;;;;;;3391439;42;20101;-60
2022/09/18 10:39:53;;;;;;;9.90;5.55;;;;;;;;;;3393054;42;20096;-62
2022/09/18 10:42:22;;;;;;;9.55;5.35;;;;;;;;;;3385535;42;20094;-61
2022/09/18 10:44:57;;;;;;;11.20;6.10;;;;;;;;;;3383857;42;20090;-62
2022/09/18 10:47:27;;;;;;;12.77;6.18;;;;;;;;;;3392133;42;20496;-58
2022/09/18 10:50:14;;;;;;;13.63;6.72;;;;;;;;;;3393549;42;20124;-61
2022/09/18 10:52:45;;;;;;;14.20;7.30;;;;;;;;;;3375524;42;20100;-60
2022/09/18 10:55:15;;;;;;;11.27;6.50;;;;;;;;;;3379775;42;20118;-59
2022/09/18 10:57:47;;;;;;;15.07;7.60;;;;;;;;;;3380688;42;20237;-61
2022/09/18 11:00:19;;;;;;;11.15;6.47;;;;;;;;;;3376166;42;20093;-62
2022/09/18 11:02:48;;;;;;;11.20;6.88;;;;;;;;;;3377371;42;20151;-60
2022/09/18 11:05:31;;;;;;;12.90;7.35;;;;;;;;;;3367831;42;20698;-61
2022/09/18 11:07:59;;;;;;;12.68;7.18;;;;;;;;;;3372296;42;20090;-61
2022/09/18 11:10:27;;;;;;;14.07;7.60;;;;;;;;;;3374062;42;20117;-60
2022/09/18 11:12:56;;;;;;;12.68;7.55;;;;;;;;;;3374613;42;20084;-62
2022/09/18 11:15:24;;;;;;;19.40;7.60;;;;;;;;;;3371977;42;20134;-66
2022/09/18 11:17:51;;;;;;;12.75;7.43;;;;;;;;;;3378081;42;20100;-62
2022/09/18 11:20:42;;;;;;;11.38;6.88;;;;;;;;;;3377841;42;20126;-62
2022/09/18 11:23:17;;;;;;;13.07;6.97;;;;;;;;;;3376297;42;20106;-63
2022/09/18 11:25:47;;;;;;;12.02;7.00;;;;;;;;;;3378760;42;20087;-60
2022/09/18 11:28:31;;;;;;;11.90;6.75;;;;;;;;;;3381298;42;20150;-60
2022/09/18 11:31:10;;;;;;;12.60;7.22;;;;;;;;;;3377521;42;20562;-59
2022/09/18 11:33:50;;;;;;;12.40;6.95;;;;;;;;;;3376666;42;20107;-65
2022/09/18 11:36:23;;;;;;;12.30;6.60;;;;;;;;;;3377060;42;20092;-58
2022/09/18 11:38:49;;;;;;;15.00;7.57;;;;;;;;;;3381904;42;20080;-60
2022/09/18 11:41:23;;;;;;;11.20;6.20;;;;;;;;;;3381524;42;20196;-61
2022/09/18 11:44:14;;;;;;;12.07;7.25;;;;;;;;;;3373471;42;20143;-60
2022/09/18 11:46:58;;;;;;;12.45;7.50;;;;;;;;;;3367425;42;20091;-59
2022/09/18 11:49:48;;;;;;;12.93;8.10;;;;;;;;;;3380387;42;20102;-62
2022/09/18 11:52:30;;;;;;;13.32;7.60;;;;;;;;;;3373743;42;20092;-60
2022/09/18 11:55:08;;;;;;;14.45;8.40;;;;;;;;;;3386354;42;20180;-59
2022/09/18 11:57:37;;;;;;;13.95;7.18;;;;;;;;;;3382295;42;20160;-62
2022/09/18 12:00:09;;;;;;;12.95;7.32;;;;;;;;;;3384846;42;20248;-61
2022/09/18 12:02:38;;;;;;;13.90;7.57;;;;;;;;;;3383820;42;20160;-62
2022/09/18 12:05:50;;;;;;;14.10;7.07;;;;;;;;;;3385125;42;20594;-60
2022/09/18 12:08:52;;;;;;;12.30;6.82;;;;;;;;;;3349583;42;20128;-60
2022/09/18 12:11:33;;;;;;;13.25;7.13;;;;;;;;;;3350469;42;20614;-59
2022/09/18 12:14:10;;;;;;;13.20;7.07;;;;;;;;;;3374750;42;20083;-61
2022/09/18 12:16:52;;;;;;;12.13;6.83;;;;;;;;;;3388044;42;20086;-63
2022/09/18 12:19:39;;;;;;;12.60;7.03;;;;;;;;;;3372965;42;20175;-60
2022/09/18 12:22:11;;;;;;;14.73;8.50;;;;;;;;;;3376118;42;20087;-61
2022/09/18 12:24:37;;;;;;;13.40;7.90;;;;;;;;;;3376388;42;20600;-62
2022/09/18 12:27:06;;;;;;;15.17;7.70;;;;;;;;;;3387387;42;20083;-64
2022/09/18 12:29:35;;;;;;;13.88;8.23;;;;;;;;;;3385676;42;20098;-60
2022/09/18 12:32:10;;;;;;;13.95;7.40;;;;;;;;;;3384180;42;20091;-60
2022/09/18 12:34:54;;;;;;;16.80;7.82;;;;;;;;;;3382005;42;20074;-59
2022/09/18 12:37:35;;;;;;;12.52;7.55;;;;;;;;;;3385361;42;20093;-63
2022/09/18 12:40:10;;;;;;;14.23;7.30;;;;;;;;;;3388183;42;20098;-61
2022/09/18 12:43:00;;;;;;;14.63;7.88;;;;;;;;;;3376048;42;20087;-62
2022/09/18 12:45:45;;;;;;;13.60;7.97;;;;;;;;;;3384507;42;20254;-62
2022/09/18 12:48:25;;;;;;;13.85;7.80;;;;;;;;;;3384818;42;20142;-61
2022/09/18 12:51:18;;;;;;;13.98;7.20;;;;;;;;;;3382992;42;20099;-61
2022/09/18 12:53:49;;;;;;;13.17;7.30;;;;;;;;;;3390324;42;20540;-59
2022/09/18 12:56:18;;;;;;;12.23;7.00;;;;;;;;;;3384088;42;20233;-61
2022/09/18 12:59:11;;;;;;;13.63;7.25;;;;;;;;;;3385299;42;20083;-62
2022/09/18 13:01:40;;;;;;;11.90;6.82;;;;;;;;;;3384574;42;20105;-57
2022/09/18 13:04:30;;;;;;;12.43;6.63;;;;;;;;;;3395449;42;20101;-61
2022/09/18 13:07:09;;;;;;;12.13;6.83;;;;;;;;;;3396986;42;20159;-60
2022/09/18 13:09:46;;;;;;;14.60;7.18;;;;;;;;;;3387456;42;20078;-58
2022/09/18 13:12:33;;;;;;;12.55;7.05;;;;;;;;;;3396146;42;20086;-60
2022/09/18 13:15:21;;;;;;;11.75;6.88;;;;;;;;;;3395889;42;20173;-60
2022/09/18 13:18:22;;;;;;;13.32;7.38;;;;;;;;;;3380867;42;20120;-60
2022/09/18 13:20:48;;;;;;;13.43;6.60;;;;;;;;;;3387842;42;20075;-60
2022/09/18 13:23:23;;;;;;;12.70;7.05;;;;;;;;;;3388094;42;20094;-62
2022/09/18 13:25:50;;;;;;;12.18;7.13;;;;;;;;;;3389066;42;20078;-60
2022/09/18 13:28:18;;;;;;;12.45;6.72;;;;;;;;;;3384227;42;20561;-59
2022/09/18 13:30:44;;;;;;;12.65;6.78;;;;;;;;;;3382318;42;20099;-59
2022/09/18 13:33:25;;;;;;;13.53;6.97;;;;;;;;;;3392212;42;20160;-59
2022/09/18 13:35:55;;;;;;;13.27;7.03;;;;;;;;;;3377779;42;20095;-60
2022/09/18 13:38:25;;;;;;;15.20;6.95;;;;;;;;;;3391827;42;20086;-59
2022/09/18 13:41:02;;;;;;;14.32;7.00;;;;;;;;;;3384414;42;20094;-61
2022/09/18 13:43:28;;;;;;;12.45;7.72;;;;;;;;;;3382425;42;20105;-60
2022/09/18 13:45:55;;;;;;;14.03;6.67;;;;;;;;;;3393470;42;20083;-62
2022/09/18 13:48:43;;;;;;;13.55;7.00;;;;;;;;;;3384976;42;20082;-60
2022/09/18 13:51:20;;;;;;;12.25;6.70;;;;;;;;;;3386134;42;20098;-62
2022/09/18 13:53:49;;;;;;;14.70;7.00;;;;;;;;;;3387914;42;20140;-59
2022/09/18 13:56:16;;;;;;;15.02;6.97;;;;;;;;;;3387079;42;20079;-59
2022/09/18 13:58:56;;;;;;;13.30;7.30;;;;;;;;;;3382899;42;20086;-62
2022/09/18 14:01:40;;;;;;;13.55;6.78;;;;;;;;;;3382808;42;20477;-60
2022/09/18 14:04:37;;;;;;;13.18;6.80;;;;;;;;;;3394038;42;20461;-59
2022/09/18 14:07:15;;;;;;;13.45;7.07;;;;;;;;;;3390823;42;20169;-60
2022/09/18 14:09:53;;;;;;;12.88;6.95;;;;;;;;;;3383486;42;20138;-60
2022/09/18 14:12:19;;;;;;;12.07;6.97;;;;;;;;;;3382423;42;20480;-61
2022/09/18 14:15:21;;;;;;;13.82;7.30;;;;;;;;;;3380624;42;20836;-61
2022/09/18 14:18:15;;;;;;;12.75;7.20;;;;;;;;;;3382455;42;20077;-62
2022/09/18 14:20:53;;;;;;;14.43;7.90;;;;;;;;;;3390613;42;20114;-62
2022/09/18 14:23:34;;;;;;;15.27;7.38;;;;;;;;;;3391993;42;20571;-61
2022/09/18 14:26:01;;;;;;;20.63;7.40;;;;;;;;;;3395297;42;20093;-62
2022/09/18 14:28:30;;;;;;;20.15;7.90;;;;;;;;;;3392151;42;20139;-60
2022/09/18 14:31:12;;;;;;;16.73;7.53;;;;;;;;;;3389195;42;20158;-62
2022/09/18 14:33:38;;;;;;;18.25;7.95;;;;;;;;;;3383881;42;20667;-61
2022/09/18 14:36:05;;;;;;;18.47;8.50;;;;;;;;;;3382639;42;20565;-59
2022/09/18 14:38:34;;;;;;;17.50;7.90;;;;;;;;;;3383014;42;21284;-60
2022/09/18 14:41:04;;;;;;;16.63;8.63;;;;;;;;;;3394124;42;20131;-62
2022/09/18 14:43:31;;;;;;;16.40;7.88;;;;;;;;;;3384877;42;20319;-64
2022/09/18 14:45:57;;;;;;;16.98;7.90;;;;;;;;;;3392798;42;20512;-61
2022/09/18 14:48:32;;;;;;;15.33;8.47;;;;;;;;;;3382179;42;20074;-60
2022/09/18 14:51:03;;;;;;;17.63;8.30;;;;;;;;;;3383804;42;20705;-62
2022/09/18 14:53:29;;;;;;;17.02;8.10;;;;;;;;;;3392129;42;20596;-60
2022/09/18 14:56:06;;;;;;;14.82;7.93;;;;;;;;;;3392377;42;20143;-64
2022/09/18 14:58:34;;;;;;;15.48;8.05;;;;;;;;;;3392538;42;20086;-60
2022/09/18 15:01:00;;;;;;;14.57;7.67;;;;;;;;;;3384711;42;20106;-59
2022/09/18 15:03:32;;;;;;;15.20;8.13;;;;;;;;;;3392142;42;20098;-61